Weather forecast for Mishelevka (Мишелевка)

Russia, 412 m
N52.890, E103.197


Sounding

Red line — air temperature ˚C.
Blue line — thermal bubble temperature ˚C.
Green line — dew point temperature ˚C.
Wind speed is in meters per second.

Table forecast

GFS 0.25˚ model

temp. wind gust humid. clouds prec. press. hpbl
Thu14 00:00 -15 268.0 w 1 1 96 100 0.1 1039 20
03:00 -15 308.0 nw 1 1 96 100 0.2 1040 20
06:00 -15 275.0 w 1 1 97 100 0.3 1039 20
09:00 -15 229.0 sw 1 2 98 100 0.6 1040 20
12:00 -16 239.0 wsw 1 2 96 98 0.1 1039 46
15:00 -13 259.0 w 2 3 91 98 0.4 1039 225
18:00 -14 263.0 w 2 2 94 100 0.2 1039 20
21:00 -13 312.0 nw 3 10 95 100 0.6 1042 434
 
Fri15 00:00 -16 306.0 nw 4 10 91 100 0.1 1044 311
03:00 -19 319.0 nw 3 7 95 100 0.4 1045 196
06:00 -18 329.0 nnw 1 1 97 100 0.6 1045 20
09:00 -18 197.0 ssw 0 0 98 100 1.3 1045 22
12:00 -14 285.0 wnw 2 5 96 100 0.7 1044 215
15:00 -10 314.0 nw 5 9 89 100 1.3 1042 994
18:00 -10 295.0 wnw 4 10 93 100 0.6 1042 715
21:00 -12 276.0 w 3 3 94 100 0.8 1043 61
 
Sat16 00:00 -13 256.0 wsw 2 2 92 99 0.2 1042 24
03:00 -12 243.0 wsw 2 4 90 100 0.4 1040 103
06:00 -11 257.0 wsw 3 7 90 100 0.3 1038 182
09:00 -12 268.0 w 3 4 87 100 0.4 1037 85
12:00 -10 280.0 w 3 8 89 99 0.1 1037 226
15:00 -7 278.0 w 4 8 92 100 0.6 1034 588
18:00 -6 273.0 w 4 9 93 100 0.6 1033 428
21:00 -7 265.0 w 4 8 95 100 1.4 1032 265
 
Sun17 00:00 -6 278.0 w 5 10 93 100 0.8 1031 418
03:00 -6 298.0 wnw 5 11 94 100 1.6 1031 670
06:00 -6 324.0 nw 5 11 94 100 1.3 1032 792
09:00 -9 342.0 nnw 6 13 90 100 2.1 1034 787
12:00 -10 331.0 nnw 6 12 88 100 0.4 1036 889
15:00 -10 326.0 nw 6 11 87 100 0.7 1037 911
18:00 -11 317.0 nw 5 11 89 100 0.2 1040 607
21:00 -12 309.0 nw 4 12 91 100 0.3 1042 399
 
Mon18 00:00 -13 305.0 nw 4 10 91 100 0.1 1044 329
03:00 -15 302.0 wnw 3 7 94 100 0.2 1044 168
06:00 -15 293.0 wnw 2 3 96 100 0.1 1044 75
09:00 -14 284.0 wnw 1 2 97 100 0.2 1043 22
12:00 -12 214.0 sw 1 1 97 100 0.4 1042 85
15:00 -9 206.0 ssw 3 4 96 100 1.0 1039 250
18:00 -9 239.0 wsw 2 4 97 100 0.6 1038 100
21:00 -8 274.0 w 3 6 96 99 0.7 1038 122
 

0.013 s